MET'MAP v2.0
soon released !

Expected late october,
this new version will be
more efficient, smarter,
and hosted on a brand new
server x3 powerfull...
...and still free !


Not compatible ?
Try the mobile version !

LOG IN : | Subscribe | Disclaimer | Who is Orbifly ? |
ICAO code :

TAF - LHKE Kecskemét Airport - 25 May 2020 07:32 UTC - Data Source NOAA   


- Airport Elevation : 376 ft
- No reported NOTAMs.


LHKE - Kecskemét Airport

Latest METAR recorded : 2015/08/11 08:15 LHKE 110815Z 03004KT CAVOK 26/14 Q1014 NOSIG RMK BLU
TAF TAF LHKE
Valid from the 25 at 03:00 until the 25 at 12:00 UTC


250215Z 2503/2512 30008KT CAVOK
BECMG 2505/2508 31011KT 9999 SCT040
PROB40
TEMPO 2510/2512 31020G36KT 7000 SHRA TSRA FEW030CB SCT040TCU BKN060

Source NOAA


MET'MAP, your aeronautical weather chart ! - Copyright ORBIFLY December 2007

Programming & Development : Alexandra Zaïnal
Co-Developer : Marc-Olivier Méhu
Technical & hardware support : Manuel Goepfert
Concept & Financing : Baudouin d'Aumeries